createdAt,value
2018-03-11T00:01:23.632Z,31.47
2018-03-11T00:03:51.307Z,29.40
2018-03-11T00:06:19.036Z,31.77
2018-03-11T00:08:46.801Z,32.53
2018-03-11T00:11:14.485Z,31.50
2018-03-11T00:13:42.297Z,45.93
2018-03-11T00:16:09.939Z,28.23
2018-03-11T00:18:38.445Z,102.43
2018-03-11T00:21:06.136Z,63.50
2018-03-11T00:23:33.800Z,27.30
2018-03-11T00:26:01.676Z,26.73
2018-03-11T00:28:29.375Z,26.43
2018-03-11T00:30:57.116Z,26.50
2018-03-11T00:33:24.807Z,27.43
2018-03-11T00:35:52.431Z,27.73
2018-03-11T00:38:20.104Z,29.17
2018-03-11T00:40:48.614Z,30.50
2018-03-11T00:43:16.365Z,32.00
2018-03-11T00:45:44.232Z,26.67
2018-03-11T00:48:12.030Z,27.30
2018-03-11T00:50:39.730Z,31.43
2018-03-11T00:53:07.372Z,28.90
2018-03-11T00:55:35.080Z,46.83
2018-03-11T00:58:03.500Z,51.23
2018-03-11T01:00:31.175Z,29.63
2018-03-11T01:02:58.951Z,31.70
2018-03-11T01:05:26.579Z,32.50
2018-03-11T01:07:54.363Z,31.20
2018-03-11T01:10:22.857Z,33.10
2018-03-11T01:12:50.553Z,30.00
2018-03-11T01:15:18.206Z,30.83
2018-03-11T01:17:47.112Z,30.10
2018-03-11T01:20:14.713Z,30.23
2018-03-11T01:22:42.362Z,28.40
2018-03-11T01:25:10.051Z,29.57
2018-03-11T01:27:38.583Z,30.67
2018-03-11T01:30:06.229Z,27.93
2018-03-11T01:32:33.949Z,28.77
2018-03-11T01:35:01.811Z,30.33
2018-03-11T01:37:29.411Z,30.43
2018-03-11T01:39:57.056Z,29.13
2018-03-11T01:42:24.692Z,30.87
2018-03-11T01:44:52.395Z,29.77
2018-03-11T01:47:20.831Z,29.33
2018-03-11T01:49:48.437Z,29.40
2018-03-11T01:52:16.925Z,28.53
2018-03-11T01:54:44.578Z,27.60
2018-03-11T01:57:13.092Z,29.07
2018-03-11T01:59:40.757Z,28.37
2018-03-11T02:02:08.392Z,29.13
2018-03-11T02:04:36.790Z,29.20
2018-03-11T02:07:04.503Z,27.77
2018-03-11T02:09:32.152Z,29.73
2018-03-11T02:11:59.856Z,29.43
2018-03-11T02:14:28.276Z,29.90
2018-03-11T02:16:55.918Z,27.93
2018-03-11T02:19:23.695Z,28.13
2018-03-11T02:21:51.299Z,28.27
2018-03-11T02:24:19.087Z,27.97
2018-03-11T02:26:46.753Z,29.30
2018-03-11T02:29:14.413Z,30.60
2018-03-11T02:31:42.139Z,30.13
2018-03-11T02:34:09.833Z,29.17
2018-03-11T02:36:37.532Z,29.97
2018-03-11T02:39:05.174Z,30.40
2018-03-11T02:41:32.839Z,29.40
2018-03-11T02:44:00.487Z,30.40
2018-03-11T02:46:28.140Z,30.80
2018-03-11T02:48:55.809Z,29.13
2018-03-11T02:51:24.559Z,29.70
2018-03-11T02:53:52.297Z,29.60
2018-03-11T02:56:19.909Z,31.97
2018-03-11T02:58:47.559Z,31.23
2018-03-11T03:01:15.949Z,32.70
2018-03-11T03:03:44.384Z,32.93
2018-03-11T03:06:12.116Z,33.13
2018-03-11T03:08:42.980Z,34.67
2018-03-11T03:11:10.617Z,35.43
2018-03-11T03:13:38.256Z,33.10
2018-03-11T03:16:06.688Z,36.20
2018-03-11T03:18:34.357Z,33.57
2018-03-11T03:21:01.977Z,35.73
2018-03-11T03:23:29.637Z,37.53
2018-03-11T03:25:57.283Z,38.37
2018-03-11T03:28:26.125Z,37.70
2018-03-11T03:30:53.758Z,36.83
2018-03-11T03:33:21.432Z,37.73
2018-03-11T03:35:49.076Z,36.83
2018-03-11T03:38:16.747Z,38.37
2018-03-11T03:40:44.537Z,38.53
2018-03-11T03:43:12.188Z,38.17
2018-03-11T03:45:39.849Z,38.77
2018-03-11T03:48:07.495Z,38.87
2018-03-11T03:50:35.780Z,39.47
2018-03-11T03:53:03.470Z,39.47
2018-03-11T03:55:31.155Z,40.33
2018-03-11T03:57:58.818Z,40.97
2018-03-11T04:00:26.456Z,42.10
2018-03-11T04:02:54.140Z,43.23
2018-03-11T04:05:22.619Z,41.27
2018-03-11T04:07:50.222Z,42.40
2018-03-11T04:10:18.101Z,40.40
2018-03-11T04:12:45.750Z,40.07
2018-03-11T04:15:13.392Z,42.20
2018-03-11T04:17:41.013Z,39.47
2018-03-11T04:20:08.652Z,41.57
2018-03-11T04:22:36.327Z,43.13
2018-03-11T04:25:03.977Z,40.30
2018-03-11T04:27:31.656Z,40.63
2018-03-11T04:29:59.265Z,40.57
2018-03-11T04:32:26.922Z,37.77
2018-03-11T04:34:54.606Z,42.47
2018-03-11T04:37:22.266Z,40.57
2018-03-11T04:39:49.952Z,42.57
2018-03-11T04:42:17.688Z,41.63
2018-03-11T04:44:45.410Z,41.20
2018-03-11T04:47:13.023Z,41.10
2018-03-11T04:49:40.674Z,41.50
2018-03-11T04:52:08.291Z,39.53
2018-03-11T04:54:35.940Z,42.03
2018-03-11T04:57:03.582Z,41.23
2018-03-11T04:59:31.521Z,42.47
2018-03-11T05:01:59.216Z,41.70
2018-03-11T05:04:26.897Z,42.97
2018-03-11T05:06:54.591Z,43.03
2018-03-11T05:09:22.288Z,39.47
2018-03-11T05:11:50.014Z,43.13
2018-03-11T05:14:17.651Z,44.20
2018-03-11T05:16:45.325Z,44.93
2018-03-11T05:19:14.229Z,43.60
2018-03-11T05:21:41.892Z,44.27
2018-03-11T05:24:09.593Z,45.27
2018-03-11T05:26:38.532Z,42.03
2018-03-11T05:29:06.370Z,43.67
2018-03-11T05:31:33.987Z,42.27
2018-03-11T05:34:01.757Z,43.10
2018-03-11T05:36:29.447Z,46.57
2018-03-11T05:38:57.177Z,49.00
2018-03-11T05:41:24.867Z,47.87
2018-03-11T05:43:52.499Z,44.60
2018-03-11T05:46:20.151Z,47.17
2018-03-11T05:48:47.919Z,47.70
2018-03-11T05:51:15.935Z,45.47
2018-03-11T05:53:43.865Z,41.67
2018-03-11T05:56:11.726Z,41.03
2018-03-11T05:58:40.392Z,37.23
2018-03-11T06:01:08.062Z,39.20
2018-03-11T06:03:35.845Z,39.23
2018-03-11T06:06:03.493Z,39.40
2018-03-11T06:08:31.226Z,37.10
2018-03-11T06:10:59.604Z,37.13
2018-03-11T06:13:27.331Z,34.40
2018-03-11T06:15:55.097Z,35.10
2018-03-11T06:18:22.739Z,40.90
2018-03-11T06:20:50.404Z,37.80
2018-03-11T06:23:18.023Z,31.87
2018-03-11T06:25:45.721Z,30.57
2018-03-11T06:28:13.356Z,27.80
2018-03-11T06:30:41.053Z,25.60
2018-03-11T06:33:08.733Z,27.93
2018-03-11T06:35:36.636Z,25.53
2018-03-11T06:38:04.280Z,22.83
2018-03-11T06:40:31.894Z,20.17
2018-03-11T06:42:59.584Z,18.73
2018-03-11T06:45:27.235Z,18.43
2018-03-11T06:47:54.906Z,19.17
2018-03-11T06:50:22.702Z,18.60
2018-03-11T06:52:50.676Z,20.50
2018-03-11T06:55:19.119Z,17.33
2018-03-11T06:57:46.780Z,16.73
2018-03-11T07:00:14.869Z,16.93
2018-03-11T07:02:42.545Z,17.43
2018-03-11T07:05:10.962Z,17.43
2018-03-11T07:07:38.637Z,17.73
2018-03-11T07:10:06.416Z,18.20
2018-03-11T07:12:34.060Z,17.27
2018-03-11T07:15:01.758Z,17.40
2018-03-11T07:17:29.419Z,17.17
2018-03-11T07:19:57.031Z,20.17
2018-03-11T07:22:24.700Z,17.80
2018-03-11T07:24:52.360Z,17.13
2018-03-11T07:27:20.058Z,17.13
2018-03-11T07:29:47.823Z,16.67
2018-03-11T07:32:15.490Z,16.30
2018-03-11T07:34:43.204Z,17.70
2018-03-11T07:37:10.867Z,18.10
2018-03-11T07:39:38.568Z,17.53
2018-03-11T07:42:06.229Z,16.03
2018-03-11T07:44:34.068Z,15.57
2018-03-11T07:47:01.733Z,15.67
2018-03-11T07:49:29.471Z,15.20
2018-03-11T07:51:57.190Z,15.03
2018-03-11T07:54:24.988Z,14.20
2018-03-11T07:56:52.665Z,14.77
2018-03-11T07:59:20.306Z,15.00
2018-03-11T08:01:47.995Z,13.57
2018-03-11T08:04:15.629Z,13.77
2018-03-11T08:06:43.295Z,13.80
2018-03-11T08:09:11.071Z,12.03
2018-03-11T08:11:38.815Z,12.07
2018-03-11T08:14:06.555Z,12.13
2018-03-11T08:16:34.200Z,11.23
2018-03-11T08:19:02.235Z,19.73
2018-03-11T08:21:29.853Z,13.33
2018-03-11T08:23:58.620Z,10.50
2018-03-11T08:26:26.315Z,10.00
2018-03-11T08:28:54.882Z,9.87
2018-03-11T08:31:22.561Z,10.80
2018-03-11T08:33:51.096Z,11.10
2018-03-11T08:36:18.808Z,13.03
2018-03-11T08:38:47.247Z,12.23
2018-03-11T08:41:15.004Z,14.00
2018-03-11T08:43:42.898Z,8.30
2018-03-11T08:46:11.744Z,6.83
2018-03-11T08:48:39.614Z,6.40
2018-03-11T08:51:07.326Z,7.67
2018-03-11T08:53:35.955Z,10.47
2018-03-11T08:56:03.685Z,10.57
2018-03-11T08:58:31.485Z,9.47
2018-03-11T09:00:59.375Z,9.30
2018-03-11T09:03:27.156Z,10.20
2018-03-11T09:05:54.838Z,9.73
2018-03-11T09:08:23.620Z,10.00
2018-03-11T09:10:52.108Z,9.13
2018-03-11T09:13:20.537Z,8.73
2018-03-11T09:15:48.310Z,8.73
2018-03-11T09:18:16.111Z,7.80
2018-03-11T09:20:44.551Z,7.60
2018-03-11T09:23:12.332Z,7.57
2018-03-11T09:25:40.414Z,6.57
2018-03-11T09:28:08.967Z,6.03
2018-03-11T09:30:36.619Z,6.30
2018-03-11T09:33:04.442Z,6.00
2018-03-11T09:35:32.901Z,7.50
2018-03-11T09:38:00.794Z,6.43
2018-03-11T09:40:28.508Z,6.67
2018-03-11T09:42:56.617Z,7.33
2018-03-11T09:45:25.101Z,6.57
2018-03-11T09:47:53.555Z,5.70
2018-03-11T09:50:21.238Z,5.77
2018-03-11T09:52:49.620Z,6.60
2018-03-11T09:55:18.671Z,6.50
2018-03-11T09:57:46.312Z,6.00
2018-03-11T10:00:14.044Z,7.03
2018-03-11T10:02:41.702Z,6.67
2018-03-11T10:05:09.375Z,5.97
2018-03-11T10:07:37.086Z,6.07
2018-03-11T10:10:04.781Z,7.30
2018-03-11T10:12:33.694Z,6.17
2018-03-11T10:15:01.337Z,6.23
2018-03-11T10:17:29.873Z,6.00
2018-03-11T10:19:57.484Z,6.33
2018-03-11T10:22:25.994Z,6.80
2018-03-11T10:24:53.652Z,6.70
2018-03-11T10:27:21.357Z,6.23
2018-03-11T10:29:49.424Z,6.00
2018-03-11T10:32:17.099Z,6.30
2018-03-11T10:34:44.728Z,6.10
2018-03-11T10:37:12.354Z,5.50
2018-03-11T10:39:40.897Z,5.83
2018-03-11T10:42:08.583Z,5.97
2018-03-11T10:44:37.276Z,6.70
2018-03-11T10:47:08.387Z,6.20
2018-03-11T10:49:36.017Z,6.70
2018-03-11T10:52:04.697Z,7.10
2018-03-11T10:54:33.375Z,6.90
2018-03-11T10:57:01.103Z,6.53
2018-03-11T10:59:28.835Z,6.90
2018-03-11T11:02:01.518Z,6.70
2018-03-11T11:04:34.404Z,6.80
2018-03-11T11:07:02.784Z,6.37
2018-03-11T11:09:31.246Z,6.60
2018-03-11T11:11:59.985Z,6.43
2018-03-11T11:14:27.696Z,7.00
2018-03-11T11:16:56.132Z,6.17
2018-03-11T11:19:24.353Z,6.00
2018-03-11T11:21:52.069Z,6.10
2018-03-11T11:24:19.744Z,7.17
2018-03-11T11:26:47.535Z,6.93
2018-03-11T11:29:16.552Z,7.13
2018-03-11T11:31:44.192Z,6.87
2018-03-11T11:34:12.632Z,7.23
2018-03-11T11:36:40.770Z,6.97
2018-03-11T11:39:08.751Z,6.97
2018-03-11T11:41:38.892Z,6.57
2018-03-11T11:44:06.618Z,5.77
2018-03-11T11:46:35.968Z,6.07
2018-03-11T11:49:04.163Z,5.87
2018-03-11T11:51:31.818Z,6.20
2018-03-11T11:53:59.968Z,6.27
2018-03-11T11:56:27.574Z,5.80
2018-03-11T11:58:56.037Z,5.80
2018-03-11T12:01:23.767Z,5.40
2018-03-11T12:03:51.542Z,5.77
2018-03-11T12:06:19.182Z,5.70
2018-03-11T12:08:46.843Z,5.77
2018-03-11T12:11:14.482Z,5.17
2018-03-11T12:13:42.163Z,5.50
2018-03-11T12:16:11.312Z,4.93
2018-03-11T12:18:39.744Z,5.30
2018-03-11T12:21:07.899Z,5.00
2018-03-11T12:23:35.629Z,4.80
2018-03-11T12:26:04.410Z,4.80
2018-03-11T12:28:32.841Z,4.80
2018-03-11T12:31:01.642Z,4.70
2018-03-11T12:33:29.281Z,4.57
2018-03-11T12:35:57.604Z,4.83
2018-03-11T12:38:26.543Z,5.77
2018-03-11T12:40:54.231Z,5.00
2018-03-11T12:43:21.909Z,5.20
2018-03-11T12:45:51.023Z,4.60
2018-03-11T12:48:18.851Z,4.43
2018-03-11T12:50:46.479Z,4.30
2018-03-11T12:53:14.236Z,4.70
2018-03-11T12:55:42.659Z,4.70
2018-03-11T12:58:12.014Z,4.87
2018-03-11T13:00:39.674Z,4.73
2018-03-11T13:03:07.391Z,4.37
2018-03-11T13:05:35.044Z,5.00
2018-03-11T13:08:02.677Z,4.50
2018-03-11T13:10:30.750Z,5.10
2018-03-11T13:12:58.424Z,4.90
2018-03-11T13:15:26.088Z,5.13
2018-03-11T13:17:57.053Z,4.90
2018-03-11T13:20:37.135Z,5.60
2018-03-11T13:23:05.285Z,5.30
2018-03-11T13:25:34.426Z,5.20
2018-03-11T13:28:14.431Z,5.73
2018-03-11T13:30:42.446Z,5.23
2018-03-11T13:33:21.967Z,5.30
2018-03-11T13:35:49.952Z,5.50
2018-03-11T13:38:29.979Z,5.30
2018-03-11T13:40:57.643Z,5.17
2018-03-11T13:43:25.412Z,5.10
2018-03-11T13:46:04.804Z,5.23
2018-03-11T13:48:32.448Z,5.60
2018-03-11T13:51:00.323Z,5.20
2018-03-11T13:53:39.679Z,5.10
2018-03-11T13:56:09.975Z,5.43
2018-03-11T13:58:44.995Z,5.00
2018-03-11T14:01:13.422Z,5.13
2018-03-11T14:03:41.297Z,5.00
2018-03-11T14:06:08.991Z,5.30
2018-03-11T14:08:36.744Z,5.50
2018-03-11T14:11:06.469Z,4.97
2018-03-11T14:13:34.414Z,5.83
2018-03-11T14:16:02.639Z,5.20
2018-03-11T14:18:30.832Z,5.80
2018-03-11T14:20:59.335Z,5.53
2018-03-11T14:23:27.299Z,5.80
2018-03-11T14:25:55.077Z,6.37
2018-03-11T14:28:22.765Z,6.13
2018-03-11T14:30:50.471Z,6.10
2018-03-11T14:33:18.172Z,6.03
2018-03-11T14:35:46.923Z,6.00
2018-03-11T14:38:14.963Z,5.83
2018-03-11T14:40:46.221Z,6.33
2018-03-11T14:43:14.067Z,6.33
2018-03-11T14:45:41.742Z,7.07
2018-03-11T14:48:09.646Z,7.10
2018-03-11T14:50:37.279Z,7.00
2018-03-11T14:53:04.986Z,6.97
2018-03-11T14:55:33.484Z,6.63
2018-03-11T14:58:02.598Z,7.20
2018-03-11T15:00:30.279Z,6.87
2018-03-11T15:02:59.110Z,7.30
2018-03-11T15:05:27.622Z,6.57
2018-03-11T15:07:55.310Z,6.70
2018-03-11T15:10:22.950Z,7.53
2018-03-11T15:12:50.773Z,7.00
2018-03-11T15:15:18.528Z,7.03
2018-03-11T15:17:48.119Z,6.73
2018-03-11T15:20:15.771Z,7.33
2018-03-11T15:22:43.444Z,7.70
2018-03-11T15:25:11.210Z,7.47
2018-03-11T15:27:39.399Z,7.57
2018-03-11T15:30:09.127Z,7.83
2018-03-11T15:32:36.968Z,6.93
2018-03-11T15:35:04.957Z,8.10
2018-03-11T15:37:33.421Z,7.87
2018-03-11T15:40:01.857Z,8.53
2018-03-11T15:42:31.158Z,8.60
2018-03-11T15:44:58.803Z,8.50
2018-03-11T15:47:26.548Z,9.23
2018-03-11T15:49:54.559Z,9.23
2018-03-11T15:52:22.225Z,9.70
2018-03-11T15:54:49.853Z,10.13
2018-03-11T15:57:17.584Z,9.23
2018-03-11T15:59:45.270Z,9.97
2018-03-11T16:02:12.991Z,10.33
2018-03-11T16:04:44.325Z,9.90
2018-03-11T16:07:15.811Z,9.90
2018-03-11T16:09:43.625Z,10.17
2018-03-11T16:12:11.310Z,9.43
2018-03-11T16:14:40.124Z,9.80
2018-03-11T16:17:07.885Z,9.03
2018-03-11T16:19:35.588Z,9.50
2018-03-11T16:22:04.259Z,9.50
2018-03-11T16:24:39.616Z,8.83
2018-03-11T16:27:00.575Z,10.63
2018-03-11T16:29:28.202Z,10.23
2018-03-11T16:31:55.862Z,10.60
2018-03-11T16:34:24.024Z,10.40
2018-03-11T16:36:52.871Z,9.73
2018-03-11T16:39:20.548Z,9.70
2018-03-11T16:41:48.293Z,10.43
2018-03-11T16:44:16.348Z,9.67
2018-03-11T16:46:44.364Z,10.30
2018-03-11T16:49:12.048Z,11.43
2018-03-11T16:51:40.999Z,10.13
2018-03-11T16:54:08.755Z,10.87
2018-03-11T16:56:37.388Z,10.53
2018-03-11T16:59:05.178Z,11.13
2018-03-11T17:01:32.898Z,12.40
2018-03-11T17:04:00.688Z,11.90
2018-03-11T17:06:28.385Z,12.50
2018-03-11T17:08:56.627Z,12.90
2018-03-11T17:11:28.744Z,12.70
2018-03-11T17:13:56.400Z,13.00
2018-03-11T17:16:24.206Z,13.17
2018-03-11T17:18:52.919Z,13.80
2018-03-11T17:21:20.859Z,13.10
2018-03-11T17:23:48.608Z,14.20
2018-03-11T17:26:16.380Z,14.63
2018-03-11T17:28:44.281Z,13.87
2018-03-11T17:31:12.207Z,14.17
2018-03-11T17:33:39.939Z,15.60
2018-03-11T17:36:08.746Z,16.03
2018-03-11T17:38:36.550Z,18.60
2018-03-11T17:41:04.327Z,20.90
2018-03-11T17:43:32.064Z,21.60
2018-03-11T17:45:59.886Z,21.70
2018-03-11T17:48:27.756Z,20.20
2018-03-11T17:50:55.602Z,19.60
2018-03-11T17:53:23.393Z,17.53
2018-03-11T17:55:51.875Z,17.27
2018-03-11T17:58:19.570Z,36.13
2018-03-11T18:00:47.290Z,18.73
2018-03-11T18:05:49.179Z,16.23
2018-03-11T18:08:16.908Z,38.90
2018-03-11T18:10:45.472Z,17.97
2018-03-11T18:13:13.417Z,20.20
2018-03-11T18:15:41.238Z,18.43
2018-03-11T18:18:09.035Z,16.80
2018-03-11T18:20:36.688Z,15.55
2018-03-11T18:23:04.476Z,15.63
2018-03-11T18:25:32.206Z,15.30
2018-03-11T18:27:59.966Z,15.37
2018-03-11T18:30:27.775Z,15.73
2018-03-11T18:32:55.482Z,14.80
2018-03-11T18:35:23.867Z,15.83
2018-03-11T18:37:52.150Z,16.00
2018-03-11T18:40:19.930Z,16.63
2018-03-11T18:42:47.634Z,18.90
2018-03-11T18:45:15.686Z,17.50
2018-03-11T18:47:43.974Z,18.43
2018-03-11T18:50:11.887Z,17.70
2018-03-11T18:52:39.758Z,19.13
2018-03-11T18:55:07.564Z,18.67
2018-03-11T18:57:35.259Z,17.97
2018-03-11T19:00:03.023Z,18.50
2018-03-11T19:02:30.884Z,18.13
2018-03-11T19:04:59.480Z,18.07
2018-03-11T19:07:27.961Z,16.67
2018-03-11T19:09:55.719Z,18.40
2018-03-11T19:12:23.482Z,15.00
2018-03-11T19:14:52.482Z,16.60
2018-03-11T19:17:21.095Z,14.53
2018-03-11T19:19:48.972Z,16.50
2018-03-11T19:22:16.745Z,15.73
2018-03-11T19:24:44.508Z,15.87
2018-03-11T19:27:12.173Z,15.67
2018-03-11T19:29:40.762Z,16.83
2018-03-11T19:32:08.454Z,15.70
2018-03-11T19:34:37.196Z,15.37
2018-03-11T19:37:04.894Z,14.97
2018-03-11T19:39:32.680Z,15.43
2018-03-11T19:42:01.453Z,15.13
2018-03-11T19:44:29.366Z,16.27
2018-03-11T19:46:57.291Z,16.03
2018-03-11T19:49:26.616Z,16.03
2018-03-11T19:51:54.897Z,15.90
2018-03-11T19:54:22.559Z,16.10
2018-03-11T19:56:50.377Z,15.20
2018-03-11T19:59:18.133Z,16.07
2018-03-11T20:01:45.812Z,15.60
2018-03-11T20:04:14.282Z,15.50
2018-03-11T20:06:42.017Z,15.13
2018-03-11T20:09:09.726Z,15.50
2018-03-11T20:11:38.240Z,16.63
2018-03-11T20:14:06.015Z,15.60
2018-03-11T20:16:34.575Z,16.93
2018-03-11T20:19:02.543Z,16.77
2018-03-11T20:21:30.319Z,19.50
2018-03-11T20:23:57.982Z,17.13
2018-03-11T20:26:27.172Z,17.67
2018-03-11T20:28:56.289Z,17.00
2018-03-11T20:31:24.266Z,17.13
2018-03-11T20:33:53.711Z,17.73
2018-03-11T20:36:21.483Z,19.23
2018-03-11T20:38:49.137Z,19.63
2018-03-11T20:41:17.699Z,19.60
2018-03-11T20:43:45.831Z,20.03
2018-03-11T20:46:13.641Z,21.17
2018-03-11T20:48:42.182Z,20.10
2018-03-11T20:51:09.949Z,27.50
2018-03-11T20:53:38.032Z,22.87
2018-03-11T20:56:05.750Z,21.27
2018-03-11T20:58:33.619Z,18.97
2018-03-11T21:01:02.543Z,19.47
2018-03-11T21:03:31.288Z,19.67
2018-03-11T21:05:58.973Z,18.57
2018-03-11T21:08:30.315Z,19.60
2018-03-11T21:10:58.645Z,19.97
2018-03-11T21:13:26.328Z,21.03
2018-03-11T21:15:54.922Z,20.50
2018-03-11T21:18:23.384Z,20.13
2018-03-11T21:20:51.147Z,21.97
2018-03-11T21:23:19.712Z,21.43
2018-03-11T21:25:47.314Z,23.77
2018-03-11T21:28:16.783Z,24.20
2018-03-11T21:30:44.534Z,24.17
2018-03-11T21:33:12.244Z,23.20
2018-03-11T21:35:39.917Z,22.67
2018-03-11T21:38:07.628Z,21.10
2018-03-11T21:40:37.054Z,24.10
2018-03-11T21:43:04.731Z,25.73
2018-03-11T21:45:32.970Z,25.00
2018-03-11T21:48:00.932Z,26.23
2018-03-11T21:50:28.701Z,25.33
2018-03-11T21:52:56.420Z,25.13
2018-03-11T21:55:29.009Z,25.37
2018-03-11T21:57:59.622Z,27.20
2018-03-11T22:00:28.162Z,26.93
2018-03-11T22:02:55.843Z,27.07
2018-03-11T22:05:23.930Z,27.70
2018-03-11T22:07:52.489Z,28.87
2018-03-11T22:10:21.061Z,27.77
2018-03-11T22:12:48.840Z,28.50
2018-03-11T22:15:16.738Z,29.63
2018-03-11T22:17:44.592Z,28.27
2018-03-11T22:20:13.033Z,26.93
2018-03-11T22:22:40.675Z,27.47
2018-03-11T22:25:08.379Z,28.20
2018-03-11T22:27:36.261Z,29.00
2018-03-11T22:30:04.693Z,28.50
2018-03-11T22:32:32.385Z,27.63
2018-03-11T22:35:00.243Z,26.27
2018-03-11T22:37:27.927Z,25.53
2018-03-11T22:39:56.386Z,24.30
2018-03-11T22:42:24.110Z,25.00
2018-03-11T22:44:51.864Z,24.67
2018-03-11T22:47:19.597Z,24.57
2018-03-11T22:49:48.067Z,23.40
2018-03-11T22:52:15.725Z,22.77
2018-03-11T22:54:43.682Z,22.70
2018-03-11T22:57:11.466Z,24.03
2018-03-11T22:59:39.964Z,23.27
2018-03-11T23:02:08.606Z,24.00
2018-03-11T23:04:36.317Z,23.27
2018-03-11T23:07:04.102Z,22.47
2018-03-11T23:09:31.742Z,22.57
2018-03-11T23:11:59.398Z,23.00
2018-03-11T23:14:27.385Z,23.30
2018-03-11T23:16:55.147Z,25.13
2018-03-11T23:19:22.924Z,25.53
2018-03-11T23:21:50.677Z,26.90
2018-03-11T23:24:18.409Z,25.13
2018-03-11T23:26:46.901Z,24.57
2018-03-11T23:29:14.739Z,25.00
2018-03-11T23:31:42.519Z,25.53
2018-03-11T23:34:10.147Z,27.73
2018-03-11T23:36:37.904Z,25.17
2018-03-11T23:39:05.545Z,25.77
2018-03-11T23:41:33.669Z,25.27
2018-03-11T23:44:01.446Z,25.63
2018-03-11T23:46:29.474Z,24.00
2018-03-11T23:48:57.403Z,25.90
2018-03-11T23:51:25.336Z,25.47
2018-03-11T23:53:53.264Z,23.53
2018-03-11T23:56:21.129Z,24.37
2018-03-11T23:58:48.896Z,23.43
